createdAt,value
2018-12-13T00:00:12.402Z,0.00
2018-12-13T00:01:12.389Z,0.00
2018-12-13T00:02:12.380Z,0.00
2018-12-13T00:03:12.361Z,0.00
2018-12-13T00:04:12.409Z,0.00
2018-12-13T00:05:12.350Z,0.00
2018-12-13T00:06:12.363Z,0.00
2018-12-13T00:07:12.330Z,0.00
2018-12-13T00:08:12.311Z,0.00
2018-12-13T00:09:12.315Z,0.00
2018-12-13T00:10:12.299Z,0.00
2018-12-13T00:11:12.323Z,0.00
2018-12-13T00:12:12.303Z,0.00
2018-12-13T00:13:12.257Z,0.00
2018-12-13T00:14:12.246Z,0.00
2018-12-13T00:15:12.237Z,0.00
2018-12-13T00:16:12.251Z,0.00
2018-12-13T00:17:12.219Z,0.00
2018-12-13T00:18:12.219Z,0.00
2018-12-13T00:19:12.196Z,0.00
2018-12-13T00:20:12.203Z,0.00
2018-12-13T00:21:12.176Z,0.00
2018-12-13T00:22:12.167Z,0.00
2018-12-13T00:23:12.146Z,0.00
2018-12-13T00:24:12.143Z,0.00
2018-12-13T00:25:12.189Z,0.00
2018-12-13T00:26:12.115Z,0.00
2018-12-13T00:27:12.111Z,0.00
2018-12-13T00:28:12.092Z,0.00
2018-12-13T00:29:12.092Z,0.00
2018-12-13T00:30:12.092Z,0.00
2018-12-13T00:31:12.097Z,0.00
2018-12-13T00:32:12.085Z,0.00
2018-12-13T00:33:12.041Z,0.00
2018-12-13T00:34:12.028Z,0.00
2018-12-13T00:35:12.013Z,0.00
2018-12-13T00:36:12.050Z,0.00
2018-12-13T00:37:12.026Z,0.00
2018-12-13T00:38:11.984Z,0.00
2018-12-13T00:39:11.975Z,0.00
2018-12-13T00:40:11.958Z,0.00
2018-12-13T00:41:12.016Z,0.00
2018-12-13T00:42:11.975Z,0.00
2018-12-13T00:43:11.928Z,0.00
2018-12-13T00:44:11.926Z,0.00
2018-12-13T00:45:11.908Z,0.00
2018-12-13T00:46:11.901Z,0.00
2018-12-13T00:47:11.930Z,0.00
2018-12-13T00:48:11.869Z,0.00
2018-12-13T00:49:11.913Z,0.00
2018-12-13T00:50:11.903Z,0.00
2018-12-13T00:51:11.836Z,0.00
2018-12-13T00:52:11.854Z,0.00
2018-12-13T00:53:11.822Z,0.00
2018-12-13T00:54:11.829Z,0.00
2018-12-13T00:55:11.792Z,0.00
2018-12-13T00:56:11.786Z,0.00
2018-12-13T00:57:11.902Z,0.00
2018-12-13T00:58:11.780Z,0.00
2018-12-13T00:59:11.755Z,0.00
2018-12-13T01:00:11.748Z,0.00
2018-12-13T01:01:11.729Z,0.00
2018-12-13T01:02:11.762Z,0.00
2018-12-13T01:03:11.733Z,0.00
2018-12-13T01:04:11.703Z,0.00
2018-12-13T01:05:11.682Z,0.00
2018-12-13T01:06:11.697Z,0.00
2018-12-13T01:07:11.662Z,0.00
2018-12-13T01:08:11.704Z,0.00
2018-12-13T01:09:11.647Z,0.00
2018-12-13T01:10:11.635Z,0.00
2018-12-13T01:11:11.623Z,0.00
2018-12-13T01:12:11.612Z,0.00
2018-12-13T01:13:11.651Z,0.00
2018-12-13T01:14:11.589Z,0.00
2018-12-13T01:15:11.608Z,0.00
2018-12-13T01:16:11.578Z,0.00
2018-12-13T01:17:12.150Z,0.00
2018-12-13T01:18:11.543Z,0.00
2018-12-13T01:19:11.532Z,0.00
2018-12-13T01:20:11.565Z,0.00
2018-12-13T01:21:11.612Z,0.00
2018-12-13T01:22:11.538Z,0.00
2018-12-13T01:23:11.490Z,0.00
2018-12-13T01:24:11.550Z,0.00
2018-12-13T01:25:11.508Z,0.00
2018-12-13T01:26:11.460Z,0.00
2018-12-13T01:27:11.456Z,0.00
2018-12-13T01:28:11.436Z,0.00
2018-12-13T01:29:11.467Z,0.00
2018-12-13T01:30:11.412Z,0.00
2018-12-13T01:31:11.477Z,0.00
2018-12-13T01:32:11.410Z,0.00
2018-12-13T01:33:11.385Z,0.00
2018-12-13T01:34:11.369Z,0.00
2018-12-13T01:35:11.376Z,0.00
2018-12-13T01:36:11.386Z,0.00
2018-12-13T01:37:11.400Z,0.00
2018-12-13T01:38:11.326Z,0.00
2018-12-13T01:39:11.317Z,0.00
2018-12-13T01:40:11.364Z,0.00
2018-12-13T01:41:11.322Z,0.00
2018-12-13T01:42:11.284Z,0.00
2018-12-13T01:43:11.283Z,0.00
2018-12-13T01:44:11.265Z,0.00
2018-12-13T01:45:11.257Z,0.00
2018-12-13T01:46:11.282Z,0.00
2018-12-13T01:47:11.260Z,0.00
2018-12-13T01:48:11.222Z,0.00
2018-12-13T01:49:11.209Z,0.00
2018-12-13T01:50:11.206Z,0.00
2018-12-13T01:51:11.231Z,0.00
2018-12-13T01:52:11.202Z,0.00
2018-12-13T01:53:11.215Z,0.00
2018-12-13T01:54:11.155Z,0.00
2018-12-13T01:55:11.147Z,0.00
2018-12-13T01:56:11.137Z,0.00
2018-12-13T01:57:11.177Z,0.00
2018-12-13T01:58:11.120Z,0.00
2018-12-13T01:59:11.099Z,0.00
2018-12-13T02:00:11.091Z,0.00
2018-12-13T02:01:11.184Z,0.00
2018-12-13T02:02:11.126Z,0.00
2018-12-13T02:03:11.055Z,0.00
2018-12-13T02:04:11.050Z,0.00
2018-12-13T02:05:11.029Z,0.00
2018-12-13T02:06:11.022Z,0.00
2018-12-13T02:07:11.047Z,0.00
2018-12-13T02:08:10.999Z,0.00
2018-12-13T02:09:11.010Z,0.00
2018-12-13T02:10:10.981Z,0.00
2018-12-13T02:11:10.972Z,0.00
2018-12-13T02:12:10.984Z,0.00
2018-12-13T02:13:10.983Z,0.00
2018-12-13T02:14:10.942Z,0.00
2018-12-13T02:15:10.958Z,0.00
2018-12-13T02:16:10.917Z,0.00
2018-12-13T02:17:10.903Z,0.00
2018-12-13T02:18:10.889Z,0.00
2018-12-13T02:19:10.919Z,0.00
2018-12-13T02:20:10.917Z,0.00
2018-12-13T02:21:10.862Z,0.00
2018-12-13T02:22:10.853Z,0.00
2018-12-13T02:23:10.841Z,0.00
2018-12-13T02:24:10.856Z,0.00
2018-12-13T02:25:10.852Z,0.00
2018-12-13T02:26:10.805Z,0.00
2018-12-13T02:27:10.795Z,0.00
2018-12-13T02:28:10.781Z,0.00
2018-12-13T02:29:10.829Z,0.00
2018-12-13T02:30:10.801Z,0.00
2018-12-13T02:31:10.787Z,0.00
2018-12-13T02:32:10.741Z,0.00
2018-12-13T02:33:10.730Z,0.00
2018-12-13T02:34:10.725Z,0.00
2018-12-13T02:35:10.719Z,0.00
2018-12-13T02:36:10.783Z,0.00
2018-12-13T02:37:10.687Z,0.00
2018-12-13T02:38:10.676Z,0.00
2018-12-13T02:39:10.662Z,0.00
2018-12-13T02:40:10.677Z,0.00
2018-12-13T02:41:10.679Z,0.00
2018-12-13T02:42:10.632Z,0.00
2018-12-13T02:43:10.628Z,0.00
2018-12-13T02:44:10.629Z,0.00
2018-12-13T02:45:10.592Z,0.00
2018-12-13T02:46:10.610Z,0.00
2018-12-13T02:47:10.572Z,0.00
2018-12-13T02:48:10.593Z,0.00
2018-12-13T02:49:10.558Z,0.00
2018-12-13T02:50:10.538Z,0.00
2018-12-13T02:51:10.661Z,0.00
2018-12-13T02:52:10.519Z,0.00
2018-12-13T02:53:10.517Z,0.00
2018-12-13T02:54:10.497Z,0.00
2018-12-13T02:55:10.485Z,0.00
2018-12-13T02:56:10.515Z,0.00
2018-12-13T02:57:10.465Z,0.00
2018-12-13T02:58:10.455Z,0.00
2018-12-13T02:59:10.483Z,0.00
2018-12-13T03:00:10.505Z,0.00
2018-12-13T03:01:10.470Z,0.00
2018-12-13T03:02:10.442Z,0.00
2018-12-13T03:03:10.403Z,0.00
2018-12-13T03:04:10.428Z,0.00
2018-12-13T03:05:10.376Z,0.00
2018-12-13T03:06:10.372Z,0.00
2018-12-13T03:07:13.897Z,0.00
2018-12-13T03:08:10.351Z,0.00
2018-12-13T03:09:10.362Z,0.00
2018-12-13T03:10:10.328Z,0.00
2018-12-13T03:11:10.314Z,0.00
2018-12-13T03:12:10.378Z,0.00
2018-12-13T03:13:10.289Z,0.00
2018-12-13T03:14:10.301Z,0.00
2018-12-13T03:15:10.265Z,0.00
2018-12-13T03:16:10.271Z,0.00
2018-12-13T03:17:10.284Z,0.00
2018-12-13T03:18:10.269Z,0.00
2018-12-13T03:19:10.223Z,0.00
2018-12-13T03:20:10.224Z,0.00
2018-12-13T03:21:10.205Z,0.00
2018-12-13T03:22:10.211Z,0.00
2018-12-13T03:23:10.207Z,0.00
2018-12-13T03:24:10.242Z,0.00
2018-12-13T03:25:10.191Z,0.00
2018-12-13T03:26:10.151Z,0.00
2018-12-13T03:27:10.179Z,0.00
2018-12-13T03:28:10.123Z,0.00
2018-12-13T03:29:10.153Z,0.00
2018-12-13T03:30:10.109Z,0.00
2018-12-13T03:31:10.101Z,0.00
2018-12-13T03:32:10.086Z,0.00
2018-12-13T03:33:10.106Z,0.00
2018-12-13T03:34:10.064Z,0.00
2018-12-13T03:35:10.073Z,0.00
2018-12-13T03:36:10.039Z,0.00
2018-12-13T03:37:10.142Z,0.00
2018-12-13T03:38:10.021Z,0.00
2018-12-13T03:39:10.010Z,0.00
2018-12-13T03:40:10.030Z,0.00
2018-12-13T03:41:09.993Z,0.00
2018-12-13T03:42:10.018Z,0.00
2018-12-13T03:43:09.968Z,0.00
2018-12-13T03:44:09.953Z,0.00
2018-12-13T03:45:09.948Z,0.00
2018-12-13T03:46:09.942Z,0.00
2018-12-13T03:47:09.949Z,0.00
2018-12-13T03:48:09.920Z,0.00
2018-12-13T03:49:09.903Z,0.00
2018-12-13T03:50:09.906Z,0.00
2018-12-13T03:51:09.911Z,0.00
2018-12-13T03:52:09.906Z,0.00
2018-12-13T03:53:09.864Z,0.00
2018-12-13T03:54:09.853Z,0.00
2018-12-13T03:55:09.862Z,0.00
2018-12-13T03:56:09.832Z,0.00
2018-12-13T03:57:09.849Z,0.00
2018-12-13T03:58:09.856Z,0.00
2018-12-13T03:59:09.797Z,0.00
2018-12-13T04:00:09.819Z,0.00
2018-12-13T04:01:09.773Z,0.00
2018-12-13T04:02:09.777Z,0.00
2018-12-13T04:03:09.770Z,0.00
2018-12-13T04:04:09.745Z,0.00
2018-12-13T04:05:09.763Z,0.00
2018-12-13T04:06:09.714Z,0.00
2018-12-13T04:07:09.731Z,0.00
2018-12-13T04:08:09.757Z,0.00
2018-12-13T04:09:09.682Z,0.00
2018-12-13T04:10:09.675Z,0.00
2018-12-13T04:11:09.691Z,0.00
2018-12-13T04:12:09.722Z,0.00
2018-12-13T04:13:09.674Z,0.00
2018-12-13T04:14:09.631Z,0.00
2018-12-13T04:15:09.615Z,0.00
2018-12-13T04:16:09.645Z,0.00
2018-12-13T04:17:09.598Z,0.00
2018-12-13T04:18:09.583Z,0.00
2018-12-13T04:19:09.609Z,0.00
2018-12-13T04:20:09.573Z,0.00
2018-12-13T04:21:09.559Z,0.00
2018-12-13T04:22:09.543Z,0.00
2018-12-13T04:23:09.541Z,0.00
2018-12-13T04:24:09.552Z,0.00
2018-12-13T04:25:09.515Z,0.00
2018-12-13T04:26:09.495Z,0.00
2018-12-13T04:27:09.517Z,0.00
2018-12-13T04:28:09.483Z,0.00
2018-12-13T04:29:09.476Z,0.00
2018-12-13T04:30:09.460Z,0.00
2018-12-13T04:31:09.442Z,0.00
2018-12-13T04:32:09.466Z,0.00
2018-12-13T04:33:09.421Z,0.00
2018-12-13T04:34:09.425Z,0.00
2018-12-13T04:35:09.402Z,0.00
2018-12-13T04:36:09.447Z,0.00
2018-12-13T04:37:09.405Z,0.00
2018-12-13T04:38:09.436Z,0.00
2018-12-13T04:39:09.359Z,0.00
2018-12-13T04:40:09.354Z,0.00
2018-12-13T04:41:09.339Z,0.00
2018-12-13T04:42:09.375Z,0.00
2018-12-13T04:43:09.314Z,0.00
2018-12-13T04:44:09.306Z,0.00
2018-12-13T04:45:09.300Z,0.00
2018-12-13T04:46:09.285Z,0.00
2018-12-13T04:47:09.310Z,0.00
2018-12-13T04:48:09.258Z,0.00
2018-12-13T04:49:09.251Z,0.00
2018-12-13T04:50:09.235Z,0.00
2018-12-13T04:51:09.229Z,0.00
2018-12-13T04:52:09.267Z,0.00
2018-12-13T04:53:09.222Z,0.00
2018-12-13T04:54:09.195Z,0.00
2018-12-13T04:55:09.189Z,0.00
2018-12-13T04:56:09.226Z,0.00
2018-12-13T04:57:09.174Z,0.00
2018-12-13T04:58:09.151Z,0.00
2018-12-13T04:59:09.174Z,0.00
2018-12-13T05:00:09.135Z,0.00
2018-12-13T05:01:09.148Z,0.00
2018-12-13T05:02:09.120Z,0.00
2018-12-13T05:03:09.106Z,0.00
2018-12-13T05:04:09.118Z,0.00
2018-12-13T05:05:09.083Z,0.00
2018-12-13T05:06:09.080Z,0.00
2018-12-13T05:07:09.055Z,0.00
2018-12-13T05:08:09.076Z,0.00
2018-12-13T05:09:09.059Z,0.00
2018-12-13T05:10:09.014Z,0.00
2018-12-13T05:11:09.012Z,0.00
2018-12-13T05:12:08.996Z,0.00
2018-12-13T05:13:09.112Z,0.00
2018-12-13T05:14:08.979Z,0.00
2018-12-13T05:15:08.964Z,0.00
2018-12-13T05:16:08.954Z,0.00
2018-12-13T05:17:08.955Z,0.00
2018-12-13T05:18:08.969Z,0.00
2018-12-13T05:19:08.918Z,0.00
2018-12-13T05:20:08.914Z,0.00
2018-12-13T05:21:08.897Z,0.00
2018-12-13T05:22:08.896Z,0.00
2018-12-13T05:23:08.907Z,0.00
2018-12-13T05:24:08.872Z,0.00
2018-12-13T05:25:08.898Z,0.00
2018-12-13T05:26:08.848Z,0.00
2018-12-13T05:27:08.837Z,0.00
2018-12-13T05:28:08.824Z,0.00
2018-12-13T05:29:08.821Z,0.00
2018-12-13T05:30:08.837Z,0.00
2018-12-13T05:31:09.549Z,0.00
2018-12-13T05:32:08.807Z,0.00
2018-12-13T05:33:09.682Z,0.00
2018-12-13T05:34:08.757Z,0.00
2018-12-13T05:35:08.750Z,0.00
2018-12-13T05:36:08.770Z,0.00
2018-12-13T05:37:08.720Z,0.00
2018-12-13T05:38:08.756Z,0.00
2018-12-13T05:39:08.702Z,0.00
2018-12-13T05:40:08.694Z,0.00
2018-12-13T05:41:08.697Z,0.00
2018-12-13T05:42:08.668Z,0.00
2018-12-13T05:43:08.722Z,0.00
2018-12-13T05:44:08.656Z,0.00
2018-12-13T05:45:08.642Z,0.00
2018-12-13T05:46:08.645Z,0.00
2018-12-13T05:47:08.625Z,0.00
2018-12-13T05:48:08.697Z,0.00
2018-12-13T05:49:08.602Z,0.00
2018-12-13T05:50:08.587Z,0.00
2018-12-13T05:51:08.573Z,0.00
2018-12-13T05:52:08.571Z,0.00
2018-12-13T05:53:08.594Z,0.00
2018-12-13T05:54:08.546Z,0.00
2018-12-13T05:55:08.665Z,0.00
2018-12-13T05:56:08.533Z,0.00
2018-12-13T05:57:08.544Z,0.00
2018-12-13T05:58:08.498Z,0.00
2018-12-13T05:59:08.488Z,0.00
2018-12-13T06:00:08.511Z,0.00
2018-12-13T06:01:08.490Z,0.00
2018-12-13T06:02:08.453Z,0.00
2018-12-13T06:03:08.448Z,0.00
2018-12-13T06:04:08.437Z,0.00
2018-12-13T06:05:08.468Z,0.00
2018-12-13T06:06:08.419Z,0.00
2018-12-13T06:07:08.414Z,0.00
2018-12-13T06:08:08.391Z,0.00
2018-12-13T06:09:08.435Z,0.00
2018-12-13T06:10:08.430Z,0.00
2018-12-13T06:11:08.352Z,0.00
2018-12-13T06:12:08.378Z,0.00
2018-12-13T06:13:08.385Z,0.00
2018-12-13T06:14:08.339Z,0.00
2018-12-13T06:15:08.327Z,0.00
2018-12-13T06:16:08.297Z,0.00
2018-12-13T06:17:08.352Z,0.00
2018-12-13T06:18:08.319Z,0.00
2018-12-13T06:19:08.273Z,0.00
2018-12-13T06:20:08.267Z,0.00
2018-12-13T06:21:11.869Z,0.00
2018-12-13T06:22:08.275Z,0.00
2018-12-13T06:23:08.280Z,0.00
2018-12-13T06:24:08.233Z,0.00
2018-12-13T06:25:08.237Z,0.00
2018-12-13T06:26:08.203Z,0.00
2018-12-13T06:27:08.247Z,0.00
2018-12-13T06:28:08.179Z,0.00
2018-12-13T06:29:08.190Z,0.00
2018-12-13T06:30:08.195Z,0.00
2018-12-13T06:31:08.184Z,0.00
2018-12-13T06:32:08.134Z,0.00
2018-12-13T06:33:08.114Z,0.00
2018-12-13T06:34:08.111Z,0.00
2018-12-13T06:35:08.096Z,0.00
2018-12-13T06:36:08.138Z,0.00
2018-12-13T06:37:08.076Z,0.00
2018-12-13T06:38:08.091Z,0.00
2018-12-13T06:39:08.046Z,0.00
2018-12-13T06:40:08.122Z,0.00
2018-12-13T06:41:08.031Z,0.00
2018-12-13T06:42:08.058Z,0.00
2018-12-13T06:43:08.018Z,0.00
2018-12-13T06:44:08.058Z,0.00
2018-12-13T06:45:08.034Z,0.00
2018-12-13T06:46:07.978Z,0.00
2018-12-13T06:47:07.963Z,0.00
2018-12-13T06:48:07.952Z,0.00
2018-12-13T06:49:07.952Z,0.00
2018-12-13T06:50:07.968Z,0.00
2018-12-13T06:51:07.923Z,0.00
2018-12-13T06:52:07.961Z,0.00
2018-12-13T06:53:07.905Z,0.00
2018-12-13T06:54:07.887Z,0.00
2018-12-13T06:55:07.876Z,0.00
2018-12-13T06:56:07.866Z,0.00
2018-12-13T06:57:07.937Z,0.00
2018-12-13T06:58:07.842Z,0.00
2018-12-13T06:59:07.838Z,0.00
2018-12-13T07:00:07.831Z,4.00
2018-12-13T07:01:07.815Z,4.00
2018-12-13T07:02:07.832Z,0.00
2018-12-13T07:03:07.790Z,4.00
2018-12-13T07:04:07.786Z,4.00
2018-12-13T07:05:07.775Z,4.00
2018-12-13T07:06:07.756Z,4.00
2018-12-13T07:07:07.784Z,4.00
2018-12-13T07:08:08.082Z,4.00
2018-12-13T07:09:07.724Z,4.00
2018-12-13T07:10:07.711Z,8.00
2018-12-13T07:11:07.697Z,8.00
2018-12-13T07:12:07.709Z,8.00
2018-12-13T07:13:07.711Z,12.00
2018-12-13T07:14:07.668Z,12.00
2018-12-13T07:15:07.707Z,12.00
2018-12-13T07:16:07.649Z,16.00
2018-12-13T07:17:07.637Z,20.00
2018-12-13T07:18:07.630Z,20.00
2018-12-13T07:19:07.616Z,20.00
2018-12-13T07:20:07.654Z,24.00
2018-12-13T07:21:07.611Z,28.00
2018-12-13T07:22:07.596Z,28.00
2018-12-13T07:23:07.580Z,32.00
2018-12-13T07:24:07.603Z,36.00
2018-12-13T07:25:07.590Z,40.00
2018-12-13T07:26:07.544Z,44.00
2018-12-13T07:27:07.525Z,48.00
2018-12-13T07:28:07.519Z,52.00
2018-12-13T07:29:07.542Z,56.00
2018-12-13T07:30:07.544Z,60.00
2018-12-13T07:31:07.509Z,68.00
2018-12-13T07:32:07.505Z,72.00
2018-12-13T07:33:07.480Z,76.00
2018-12-13T07:34:07.453Z,80.00
2018-12-13T07:35:07.442Z,88.00
2018-12-13T07:36:07.510Z,92.00
2018-12-13T07:37:07.421Z,96.00
2018-12-13T07:38:07.409Z,104.00
2018-12-13T07:39:07.433Z,8.00
2018-12-13T07:40:07.386Z,108.00
2018-12-13T07:41:07.381Z,112.00
2018-12-13T07:42:07.364Z,120.00
2018-12-13T07:43:07.356Z,128.00
2018-12-13T07:44:07.390Z,132.00
2018-12-13T07:45:07.408Z,140.00
2018-12-13T07:46:07.319Z,144.00
2018-12-13T07:47:07.357Z,156.00
2018-12-13T07:48:07.307Z,160.00
2018-12-13T07:49:07.339Z,168.00
2018-12-13T07:50:07.283Z,172.00
2018-12-13T07:51:07.330Z,180.00
2018-12-13T07:52:07.301Z,184.00
2018-12-13T07:53:07.316Z,192.00
2018-12-13T07:54:07.244Z,196.00
2018-12-13T07:55:07.400Z,200.00
2018-12-13T07:56:07.289Z,208.00
2018-12-13T07:57:07.283Z,216.00
2018-12-13T07:58:07.233Z,220.00
2018-12-13T07:59:07.192Z,228.00
2018-12-13T08:00:07.173Z,236.00
2018-12-13T08:01:07.270Z,240.00
2018-12-13T08:02:07.153Z,244.00
2018-12-13T08:03:07.132Z,252.00
2018-12-13T08:04:07.161Z,260.00
2018-12-13T08:05:07.128Z,264.00
2018-12-13T08:06:07.147Z,272.00
2018-12-13T08:07:07.098Z,280.00
2018-12-13T08:08:07.084Z,284.00
2018-12-13T08:09:07.075Z,288.00
2018-12-13T08:10:07.067Z,292.00
2018-12-13T08:11:07.103Z,296.00
2018-12-13T08:12:07.034Z,304.00
2018-12-13T08:13:07.025Z,308.00
2018-12-13T08:14:07.021Z,312.00
2018-12-13T08:15:07.032Z,316.00
2018-12-13T08:16:07.009Z,324.00
2018-12-13T08:17:07.011Z,328.00
2018-12-13T08:18:07.012Z,336.00
2018-12-13T08:19:06.965Z,336.00
2018-12-13T08:20:06.953Z,340.00
2018-12-13T08:21:06.955Z,348.00
2018-12-13T08:22:06.931Z,352.00
2018-12-13T08:23:06.954Z,356.00
2018-12-13T08:24:06.933Z,364.00
2018-12-13T08:25:06.924Z,368.00
2018-12-13T08:26:06.884Z,372.00
2018-12-13T08:27:06.878Z,380.00
2018-12-13T08:28:06.874Z,380.00
2018-12-13T08:29:06.893Z,388.00
2018-12-13T08:30:06.842Z,392.00
2018-12-13T08:31:06.836Z,400.00
2018-12-13T08:32:06.852Z,404.00
2018-12-13T08:33:06.897Z,404.00
2018-12-13T08:34:06.839Z,408.00
2018-12-13T08:35:06.826Z,412.00
2018-12-13T08:36:06.810Z,420.00
2018-12-13T08:37:06.775Z,420.00
2018-12-13T08:38:06.785Z,428.00
2018-12-13T08:39:06.750Z,432.00
2018-12-13T08:40:06.729Z,436.00
2018-12-13T08:41:06.730Z,440.00
2018-12-13T08:42:06.712Z,444.00
2018-12-13T08:43:06.756Z,448.00
2018-12-13T08:44:06.705Z,456.00
2018-12-13T08:45:06.684Z,460.00
2018-12-13T08:46:06.672Z,464.00
2018-12-13T08:47:06.663Z,464.00
2018-12-13T08:48:06.718Z,472.00
2018-12-13T08:49:06.637Z,476.00
2018-12-13T08:50:06.662Z,476.00
2018-12-13T08:51:06.615Z,484.00
2018-12-13T08:52:06.630Z,488.00
2018-12-13T08:53:06.593Z,492.00
2018-12-13T08:54:06.592Z,492.00
2018-12-13T08:55:06.616Z,496.00
2018-12-13T08:56:06.574Z,500.00
2018-12-13T08:57:06.554Z,504.00
2018-12-13T08:58:06.545Z,508.00
2018-12-13T08:59:06.527Z,512.00
2018-12-13T09:00:06.574Z,520.00
2018-12-13T09:01:06.520Z,520.00
2018-12-13T09:02:06.498Z,528.00
2018-12-13T09:03:06.484Z,532.00
2018-12-13T09:04:06.549Z,536.00
2018-12-13T09:05:06.516Z,540.00
2018-12-13T09:06:06.456Z,544.00
2018-12-13T09:07:06.440Z,548.00
2018-12-13T09:08:06.449Z,548.00
2018-12-13T09:09:06.419Z,556.00
2018-12-13T09:10:06.443Z,560.00
2018-12-13T09:11:06.405Z,568.00
2018-12-13T09:12:06.388Z,568.00
2018-12-13T09:13:06.444Z,572.00
2018-12-13T09:14:06.370Z,572.00
2018-12-13T09:15:06.413Z,580.00
2018-12-13T09:16:06.347Z,584.00
2018-12-13T09:17:06.353Z,592.00
2018-12-13T09:18:06.325Z,588.00
2018-12-13T09:19:06.312Z,596.00
2018-12-13T09:20:06.458Z,604.00
2018-12-13T09:21:06.301Z,604.00
2018-12-13T09:22:06.345Z,608.00
2018-12-13T09:23:06.269Z,612.00
2018-12-13T09:24:06.262Z,616.00
2018-12-13T09:25:06.268Z,620.00
2018-12-13T09:26:06.264Z,620.00
2018-12-13T09:27:06.236Z,624.00
2018-12-13T09:28:06.414Z,628.00
2018-12-13T09:29:06.262Z,628.00
2018-12-13T09:30:06.285Z,632.00
2018-12-13T09:31:06.270Z,640.00
2018-12-13T09:32:06.233Z,640.00
2018-12-13T09:33:06.213Z,644.00
2018-12-13T09:34:06.627Z,644.00
2018-12-13T09:35:06.405Z,648.00
2018-12-13T09:36:06.128Z,652.00
2018-12-13T09:37:06.176Z,656.00
2018-12-13T09:38:06.153Z,656.00
2018-12-13T09:39:06.276Z,660.00
2018-12-13T09:40:06.134Z,664.00
2018-12-13T09:41:06.087Z,664.00
2018-12-13T09:42:06.104Z,668.00
2018-12-13T09:43:06.175Z,668.00
2018-12-13T09:44:06.039Z,672.00
2018-12-13T09:45:06.030Z,676.00
2018-12-13T09:46:06.028Z,680.00
2018-12-13T09:47:06.076Z,680.00
2018-12-13T09:48:06.006Z,688.00
2018-12-13T09:49:06.293Z,688.00
2018-12-13T09:50:05.976Z,692.00
2018-12-13T09:51:06.130Z,696.00
2018-12-13T09:52:05.959Z,696.00
2018-12-13T09:53:05.986Z,700.00
2018-12-13T09:54:05.947Z,700.00
2018-12-13T09:55:06.069Z,708.00
2018-12-13T09:56:06.025Z,704.00
2018-12-13T09:57:05.903Z,708.00
2018-12-13T09:58:05.892Z,716.00
2018-12-13T09:59:05.882Z,708.00
2018-12-13T10:00:05.898Z,716.00
2018-12-13T10:01:05.930Z,712.00
2018-12-13T10:02:05.843Z,720.00
2018-12-13T10:03:05.836Z,724.00
2018-12-13T10:04:05.827Z,728.00
2018-12-13T10:05:05.840Z,728.00
2018-12-13T10:06:05.832Z,732.00
2018-12-13T10:07:05.855Z,728.00
2018-12-13T10:08:05.780Z,732.00
2018-12-13T10:09:05.845Z,736.00
2018-12-13T10:10:05.766Z,736.00
2018-12-13T10:11:05.755Z,716.00
2018-12-13T10:12:05.765Z,732.00
2018-12-13T10:13:05.959Z,728.00
2018-12-13T10:14:05.740Z,728.00
2018-12-13T10:15:05.734Z,732.00
2018-12-13T10:16:05.693Z,748.00
2018-12-13T10:17:05.687Z,752.00
2018-12-13T10:18:05.671Z,752.00
2018-12-13T10:19:05.670Z,752.00
2018-12-13T10:20:05.735Z,756.00
2018-12-13T10:21:05.645Z,764.00
2018-12-13T10:22:11.502Z,768.00
2018-12-13T10:23:06.619Z,768.00
2018-12-13T10:24:05.602Z,772.00
2018-12-13T10:25:05.627Z,772.00
2018-12-13T10:26:05.622Z,784.00
2018-12-13T10:27:05.572Z,788.00
2018-12-13T10:28:05.566Z,788.00
2018-12-13T10:29:05.554Z,792.00
2018-12-13T10:30:05.539Z,788.00
2018-12-13T10:31:05.558Z,796.00
2018-12-13T10:32:05.542Z,804.00
2018-12-13T10:33:05.579Z,808.00
2018-12-13T10:34:05.513Z,804.00
2018-12-13T10:35:11.149Z,812.00
2018-12-13T10:36:06.522Z,820.00
2018-12-13T10:37:05.477Z,828.00
2018-12-13T10:38:05.491Z,820.00
2018-12-13T10:39:05.668Z,824.00
2018-12-13T10:40:05.509Z,836.00
2018-12-13T10:41:05.694Z,840.00
2018-12-13T10:42:05.833Z,844.00
2018-12-13T10:43:05.404Z,852.00
2018-12-13T10:44:05.827Z,852.00
2018-12-13T10:45:05.415Z,852.00
2018-12-13T10:46:05.377Z,856.00
2018-12-13T10:47:05.485Z,860.00
2018-12-13T10:48:05.555Z,860.00
2018-12-13T10:49:05.376Z,868.00
2018-12-13T10:50:05.392Z,872.00
2018-12-13T10:51:05.316Z,872.00
2018-12-13T10:52:05.335Z,872.00
2018-12-13T10:53:05.392Z,880.00
2018-12-13T10:54:05.289Z,884.00
2018-12-13T10:55:05.274Z,884.00
2018-12-13T10:56:05.257Z,904.00
2018-12-13T10:57:05.414Z,896.00
2018-12-13T10:58:05.482Z,912.00
2018-12-13T10:59:05.222Z,912.00
2018-12-13T11:00:05.281Z,916.00
2018-12-13T11:01:05.203Z,916.00
2018-12-13T11:02:05.193Z,928.00
2018-12-13T11:03:05.206Z,928.00
2018-12-13T11:04:05.166Z,940.00
2018-12-13T11:05:05.163Z,956.00
2018-12-13T11:06:05.147Z,960.00
2018-12-13T11:07:05.161Z,952.00
2018-12-13T11:08:05.141Z,944.00
2018-12-13T11:09:05.123Z,952.00
2018-12-13T11:10:05.126Z,976.00
2018-12-13T11:11:05.098Z,976.00
2018-12-13T11:12:05.090Z,968.00
2018-12-13T11:13:05.095Z,960.00
2018-12-13T11:14:05.071Z,964.00
2018-12-13T11:15:05.107Z,972.00
2018-12-13T11:16:05.089Z,984.00
2018-12-13T11:17:05.023Z,996.00
2018-12-13T11:18:05.015Z,980.00
2018-12-13T11:19:05.014Z,984.00
2018-12-13T11:20:05.025Z,1004.00
2018-12-13T11:21:05.016Z,1012.00
2018-12-13T11:22:04.978Z,1012.00
2018-12-13T11:23:04.973Z,1004.00
2018-12-13T11:24:04.949Z,1012.00
2018-12-13T11:25:04.970Z,1020.00
2018-12-13T11:26:04.938Z,1032.00
2018-12-13T11:27:04.914Z,1024.00
2018-12-13T11:28:04.915Z,1044.00
2018-12-13T11:29:04.939Z,1064.00
2018-12-13T11:30:04.916Z,1064.00
2018-12-13T11:31:04.874Z,1048.00
2018-12-13T11:32:04.894Z,1064.00
2018-12-13T11:33:04.859Z,1060.00
2018-12-13T11:34:04.879Z,1208.00
2018-12-13T11:35:04.877Z,1276.00
2018-12-13T11:36:04.816Z,1136.00
2018-12-13T11:37:04.810Z,1092.00
2018-12-13T11:38:04.797Z,1080.00
2018-12-13T11:39:05.843Z,1100.00
2018-12-13T11:40:04.792Z,1072.00
2018-12-13T11:41:04.762Z,1120.00
2018-12-13T11:42:05.411Z,1260.00
2018-12-13T11:43:04.760Z,1132.00
2018-12-13T11:44:04.758Z,1124.00
2018-12-13T11:45:04.720Z,1116.00
2018-12-13T11:46:04.708Z,1108.00
2018-12-13T11:47:04.708Z,1116.00
2018-12-13T11:48:04.718Z,1132.00
2018-12-13T11:49:04.680Z,1144.00
2018-12-13T11:50:04.725Z,1124.00
2018-12-13T11:51:04.652Z,1124.00
2018-12-13T11:52:04.641Z,1120.00
2018-12-13T11:53:04.630Z,1140.00
2018-12-13T11:54:04.623Z,1156.00
2018-12-13T11:55:04.654Z,1172.00
2018-12-13T11:56:04.704Z,1172.00
2018-12-13T11:57:04.652Z,1144.00
2018-12-13T11:58:04.584Z,1148.00
2018-12-13T11:59:04.566Z,1188.00
2018-12-13T12:00:04.563Z,1192.00
2018-12-13T12:01:04.580Z,1252.00
2018-12-13T12:02:04.534Z,1208.00
2018-12-13T12:03:04.519Z,1240.00
2018-12-13T12:04:04.521Z,1244.00
2018-12-13T12:05:04.572Z,1244.00
2018-12-13T12:06:04.502Z,1256.00
2018-12-13T12:07:04.485Z,1328.00
2018-12-13T12:08:04.472Z,1300.00
2018-12-13T12:09:04.459Z,1712.00
2018-12-13T12:10:04.484Z,1260.00
2018-12-13T12:11:04.530Z,1288.00
2018-12-13T12:12:04.439Z,1272.00
2018-12-13T12:13:04.446Z,1316.00
2018-12-13T12:14:04.399Z,1380.00
2018-12-13T12:15:04.405Z,1328.00
2018-12-13T12:16:04.382Z,1560.00
2018-12-13T12:17:04.374Z,1560.00
2018-12-13T12:18:04.416Z,1508.00
2018-12-13T12:19:04.348Z,1476.00
2018-12-13T12:20:04.333Z,1404.00
2018-12-13T12:21:04.334Z,1416.00
2018-12-13T12:22:04.333Z,1592.00
2018-12-13T12:23:04.342Z,1616.00
2018-12-13T12:24:04.296Z,1560.00
2018-12-13T12:25:04.287Z,1532.00
2018-12-13T12:26:04.326Z,1544.00
2018-12-13T12:27:04.269Z,1584.00
2018-12-13T12:28:04.327Z,1620.00
2018-12-13T12:29:04.267Z,1444.00
2018-12-13T12:30:04.228Z,1484.00
2018-12-13T12:31:04.254Z,1516.00
2018-12-13T12:32:04.202Z,1496.00
2018-12-13T12:33:04.194Z,1484.00
2018-12-13T12:34:04.192Z,1608.00
2018-12-13T12:35:04.206Z,1696.00
2018-12-13T12:36:04.194Z,1936.00
2018-12-13T12:37:04.185Z,2204.00
2018-12-13T12:38:04.135Z,2168.00
2018-12-13T12:39:04.135Z,2228.00
2018-12-13T12:40:04.153Z,2080.00
2018-12-13T12:41:04.118Z,1648.00
2018-12-13T12:42:04.138Z,1572.00
2018-12-13T12:43:04.138Z,1668.00
2018-12-13T12:44:04.115Z,1696.00
2018-12-13T12:45:04.065Z,1624.00
2018-12-13T12:46:04.054Z,1592.00
2018-12-13T12:47:04.047Z,1596.00
2018-12-13T12:48:04.033Z,1668.00
2018-12-13T12:49:04.061Z,1984.00
2018-12-13T12:50:04.041Z,2104.00
2018-12-13T12:51:04.002Z,2032.00
2018-12-13T12:52:04.033Z,1836.00
2018-12-13T12:53:03.987Z,1804.00